A J Mc Allister — WDB5819 — position and weather

sailwx.info

Track history (hours):
 
Tides and Currents Weather Stations Pressure Air Temp Water Temp Dewpoint Dewpoint Depression Visibility Wind Speed Wind Dir Waves Ship Positions

A J Mc Allister

Owner: MCALLISTER TOWING & TRANSPORTATION INC, NEW YORK, NY. More information available from US FCC via Universal Licensing System and Coast Guard Vessel Documentation Center.

Last reported at 2017-Dec-17 01:58 UTC. Time now 2017-Dec-17 04:22 UTC.
Position N 36°55' W 076°20'.

Length 30 m; draft 5 m.

Type: Tug. MMSI: 366913820.

Date/timePositionNaut miles runAvg speedWind from/ knotsBaromVisibWave heightAir tempDewpointWater temp
2017-Dec-17 01:58N 36°55' W 076°20'4 2.8
2017-Dec-17 00:33N 36°51' W 076°19'0 0.4
2017-Dec-17 00:30N 36°51' W 076°19'0 0.1
2017-Dec-16 23:17N 36°51' W 076°19'1 2.4
2017-Dec-16 23:00N 36°52' W 076°20'3 0.3
2017-Dec-16 13:06N 36°55' W 076°20'0 0.0
2017-Dec-16 13:00N 36°55' W 076°20'  
2017-Dec-13 22:30N 36°55' W 076°20'0 0.7
2017-Dec-13 21:53N 36°56' W 076°20'3 0.2
2017-Dec-13 00:20N 36°53' W 076°21'1 0.7
2017-Dec-12 23:07N 36°53' W 076°20'1 2.3
2017-Dec-12 22:44N 36°52' W 076°21'0 0.0
2017-Dec-12 22:03N 36°52' W 076°21'0 0.0
2017-Dec-12 21:49N 36°52' W 076°21'3 0.6
2017-Dec-12 16:45N 36°55' W 076°20'0 0.0
2017-Dec-12 16:22N 36°55' W 076°20'0 0.1
2017-Dec-12 13:02N 36°56' W 076°20'1 0.3
2017-Dec-12 10:13N 36°55' W 076°20'0 0.7
2017-Dec-12 09:59N 36°55' W 076°20'0 0.1
2017-Dec-12 09:30N 36°55' W 076°20'1 0.4
2017-Dec-12 07:50N 36°54' W 076°20'2 4.3
2017-Dec-12 07:23N 36°53' W 076°21'0 0.1
2017-Dec-12 07:00N 36°53' W 076°21'1 1.9
2017-Dec-12 06:30N 36°53' W 076°20'2 0.4
2017-Dec-12 00:15N 36°56' W 076°20'0 0.2
2017-Dec-11 22:16N 36°55' W 076°20'0 0.0
2017-Dec-11 22:00N 36°55' W 076°20'3 3.1
2017-Dec-11 21:00N 36°52' W 076°21'1 1.6
2017-Dec-11 20:30N 36°53' W 076°20'1 0.3
2017-Dec-11 17:47N 36°52' W 076°21'2 6.5
2017-Dec-11 17:27N 36°51' W 076°19'1 3.2
2017-Dec-11 17:00N 36°50' W 076°17'0 0.0
2017-Dec-11 16:30N 36°50' W 076°17'0 0.0
2017-Dec-11 16:00N 36°50' W 076°17'0 0.0
2017-Dec-11 15:30N 36°50' W 076°17'0 0.0
2017-Dec-11 15:00N 36°50' W 076°17'0 0.0
2017-Dec-11 14:30N 36°50' W 076°17'0 0.0
2017-Dec-11 14:00N 36°50' W 076°17'2 5.0
2017-Dec-11 13:30N 36°48' W 076°18'0 0.0
2017-Dec-11 13:00N 36°48' W 076°18'0 0.0
2017-Dec-11 12:30N 36°48' W 076°18'0 0.0
2017-Dec-11 12:00N 36°48' W 076°18'3 6.4
2017-Dec-11 11:30N 36°51' W 076°18'4 1.4
2017-Dec-11 08:22N 36°55' W 076°20'1 1.9
2017-Dec-11 08:00N 36°55' W 076°20'3 3.4
2017-Dec-11 07:07N 36°51' W 076°19'0 0.0
2017-Dec-11 06:59N 36°51' W 076°19'0 0.0
2017-Dec-11 06:29N 36°51' W 076°19'0 0.0
2017-Dec-11 05:59N 36°51' W 076°19'1 0.1
2017-Dec-10 21:31N 36°52' W 076°20'1 3.4
2017-Dec-10 21:11N 36°53' W 076°21'0 0.4
2017-Dec-10 21:00N 36°53' W 076°21'2 2.7
2017-Dec-10 20:20N 36°54' W 076°20'2 3.0
2017-Dec-10 19:43N 36°52' W 076°20'1 5.0
2017-Dec-10 19:30N 36°51' W 076°19'0 0.0
2017-Dec-10 19:00N 36°51' W 076°19'0 0.0
2017-Dec-10 18:30N 36°51' W 076°19'0 0.0
2017-Dec-10 18:00N 36°51' W 076°19'0 0.0
2017-Dec-10 17:30N 36°51' W 076°19'0 0.8
2017-Dec-10 16:59N 36°52' W 076°19'0 0.1
2017-Dec-10 12:34N 36°52' W 076°19'110.1
2017-Dec-10 12:30N 36°52' W 076°20'1 1.1
2017-Dec-10 11:50N 36°52' W 076°21'2 4.7
2017-Dec-10 11:24N 36°54' W 076°20'2 3.9
2017-Dec-10 10:50N 36°52' W 076°21'0 1.2
2017-Dec-10 10:29N 36°53' W 076°21'1 0.1
2017-Dec-09 22:53N 36°52' W 076°19'0 0.3
2017-Dec-09 22:25N 36°52' W 076°19'3 0.1
2017-Dec-08 22:43N 36°54' W 076°20'0 0.0
2017-Dec-08 12:00N 36°54' W 076°20'0 0.0
2017-Dec-08 11:30N 36°54' W 076°20'0 0.0
2017-Dec-07 17:20N 36°55' W 076°20'  
Track history (hours):
 
Tides and Currents Weather Stations Pressure Air Temp Water Temp Dewpoint Dewpoint Depression Visibility Wind Speed Wind Dir Waves Ship Positions

A J Mc Allister

Owner: MCALLISTER TOWING & TRANSPORTATION INC, NEW YORK, NY. More information available from US FCC via Universal Licensing System and Coast Guard Vessel Documentation Center.

Last reported at 2017-Dec-17 01:58 UTC. Time now 2017-Dec-17 04:22 UTC.
Position N 36°55' W 076°20'.

Length 30 m; draft 5 m.

Type: Tug. MMSI: 366913820.

Date/timePositionNaut miles runAvg speedWind from/ knotsBaromVisibWave heightAir tempDewpointWater temp
2017-Dec-17 01:58N 36°55' W 076°20'4 2.8
2017-Dec-17 00:33N 36°51' W 076°19'0 0.4
2017-Dec-17 00:30N 36°51' W 076°19'0 0.1
2017-Dec-16 23:17N 36°51' W 076°19'1 2.4
2017-Dec-16 23:00N 36°52' W 076°20'3 0.3
2017-Dec-16 13:06N 36°55' W 076°20'0 0.0
2017-Dec-16 13:00N 36°55' W 076°20'  
2017-Dec-13 22:30N 36°55' W 076°20'0 0.7
2017-Dec-13 21:53N 36°56' W 076°20'3 0.2
2017-Dec-13 00:20N 36°53' W 076°21'1 0.7
2017-Dec-12 23:07N 36°53' W 076°20'1 2.3
2017-Dec-12 22:44N 36°52' W 076°21'0 0.0
2017-Dec-12 22:03N 36°52' W 076°21'0 0.0
2017-Dec-12 21:49N 36°52' W 076°21'3 0.6
2017-Dec-12 16:45N 36°55' W 076°20'0 0.0
2017-Dec-12 16:22N 36°55' W 076°20'0 0.1
2017-Dec-12 13:02N 36°56' W 076°20'1 0.3
2017-Dec-12 10:13N 36°55' W 076°20'0 0.7
2017-Dec-12 09:59N 36°55' W 076°20'0 0.1
2017-Dec-12 09:30N 36°55' W 076°20'1 0.4
2017-Dec-12 07:50N 36°54' W 076°20'2 4.3
2017-Dec-12 07:23N 36°53' W 076°21'0 0.1
2017-Dec-12 07:00N 36°53' W 076°21'1 1.9
2017-Dec-12 06:30N 36°53' W 076°20'2 0.4
2017-Dec-12 00:15N 36°56' W 076°20'0 0.2
2017-Dec-11 22:16N 36°55' W 076°20'0 0.0
2017-Dec-11 22:00N 36°55' W 076°20'3 3.1
2017-Dec-11 21:00N 36°52' W 076°21'1 1.6
2017-Dec-11 20:30N 36°53' W 076°20'1 0.3
2017-Dec-11 17:47N 36°52' W 076°21'2 6.5
2017-Dec-11 17:27N 36°51' W 076°19'1 3.2
2017-Dec-11 17:00N 36°50' W 076°17'0 0.0
2017-Dec-11 16:30N 36°50' W 076°17'0 0.0
2017-Dec-11 16:00N 36°50' W 076°17'0 0.0
2017-Dec-11 15:30N 36°50' W 076°17'0 0.0
2017-Dec-11 15:00N 36°50' W 076°17'0 0.0
2017-Dec-11 14:30N 36°50' W 076°17'0 0.0
2017-Dec-11 14:00N 36°50' W 076°17'2 5.0
2017-Dec-11 13:30N 36°48' W 076°18'0 0.0
2017-Dec-11 13:00N 36°48' W 076°18'0 0.0
2017-Dec-11 12:30N 36°48' W 076°18'0 0.0
2017-Dec-11 12:00N 36°48' W 076°18'3 6.4
2017-Dec-11 11:30N 36°51' W 076°18'4 1.4
2017-Dec-11 08:22N 36°55' W 076°20'1 1.9
2017-Dec-11 08:00N 36°55' W 076°20'3 3.4
2017-Dec-11 07:07N 36°51' W 076°19'0 0.0
2017-Dec-11 06:59N 36°51' W 076°19'0 0.0
2017-Dec-11 06:29N 36°51' W 076°19'0 0.0
2017-Dec-11 05:59N 36°51' W 076°19'1 0.1
2017-Dec-10 21:31N 36°52' W 076°20'1 3.4
2017-Dec-10 21:11N 36°53' W 076°21'0 0.4
2017-Dec-10 21:00N 36°53' W 076°21'2 2.7
2017-Dec-10 20:20N 36°54' W 076°20'2 3.0
2017-Dec-10 19:43N 36°52' W 076°20'1 5.0
2017-Dec-10 19:30N 36°51' W 076°19'0 0.0
2017-Dec-10 19:00N 36°51' W 076°19'0 0.0
2017-Dec-10 18:30N 36°51' W 076°19'0 0.0
2017-Dec-10 18:00N 36°51' W 076°19'0 0.0
2017-Dec-10 17:30N 36°51' W 076°19'0 0.8
2017-Dec-10 16:59N 36°52' W 076°19'0 0.1
2017-Dec-10 12:34N 36°52' W 076°19'110.1
2017-Dec-10 12:30N 36°52' W 076°20'1 1.1
2017-Dec-10 11:50N 36°52' W 076°21'2 4.7
2017-Dec-10 11:24N 36°54' W 076°20'2 3.9
2017-Dec-10 10:50N 36°52' W 076°21'0 1.2
2017-Dec-10 10:29N 36°53' W 076°21'1 0.1
2017-Dec-09 22:53N 36°52' W 076°19'0 0.3
2017-Dec-09 22:25N 36°52' W 076°19'3 0.1
2017-Dec-08 22:43N 36°54' W 076°20'0 0.0
2017-Dec-08 12:00N 36°54' W 076°20'0 0.0
2017-Dec-08 11:30N 36°54' W 076°20'0 0.0
2017-Dec-07 17:20N 36°55' W 076°20'  

Dump ship's entire track history